Time;durP1;ratioP1;P1;durP2;ratioP2;P2;SDS_P1;SDS_P2;PMS_P1;PMS_P2;Temp;Humidity;BMP_temperature;BMP_pressure;BME280_temperature;BME280_humidity;BME280_pressure;Samples;Min_cycle;Max_cycle;Signal;HPM_P1;HPM_P2
2022/10/05 00:01:25;;;;;;;0.90;0.40;;;9.60;99.90;;;;;;5010120;28;20440;-48
2022/10/05 00:03:57;;;;;;;2.40;1.20;;;9.50;99.90;;;;;;5010092;28;20479;-47
2022/10/05 00:06:25;;;;;;;1.10;0.73;;;9.40;99.90;;;;;;5010334;28;20475;-48
2022/10/05 00:08:52;;;;;;;1.00;0.70;;;9.40;99.90;;;;;;5009937;28;20442;-47
2022/10/05 00:11:19;;;;;;;1.30;0.60;;;9.40;99.90;;;;;;5010270;28;20539;-48
2022/10/05 00:13:47;;;;;;;2.03;0.87;;;9.40;99.90;;;;;;5009668;28;20554;-47
2022/10/05 00:16:17;;;;;;;1.87;1.00;;;9.40;99.90;;;;;;5009761;28;21017;-47
2022/10/05 00:18:47;;;;;;;1.10;0.40;;;9.50;99.90;;;;;;5009596;28;20456;-48
2022/10/05 00:21:20;;;;;;;1.17;0.63;;;9.50;99.90;;;;;;5010054;28;20466;-47
2022/10/05 00:23:47;;;;;;;0.90;0.50;;;9.40;99.90;;;;;;5009643;28;20491;-47
2022/10/05 00:26:18;;;;;;;1.63;0.80;;;9.40;99.90;;;;;;5009710;28;20445;-47
2022/10/05 00:28:46;;;;;;;2.70;0.60;;;8.70;99.90;;;;;;5009970;28;20458;-47
2022/10/05 00:31:18;;;;;;;3.10;0.97;;;8.80;99.90;;;;;;5009889;28;20542;-47
2022/10/05 00:33:46;;;;;;;1.20;0.83;;;9.10;99.90;;;;;;5009903;28;20558;-47
2022/10/05 00:36:13;;;;;;;2.13;0.70;;;9.10;99.90;;;;;;5009714;28;20538;-47
2022/10/05 00:38:41;;;;;;;2.70;0.90;;;8.90;99.90;;;;;;5009492;28;20930;-50
2022/10/05 00:41:12;;;;;;;2.67;0.90;;;9.00;99.90;;;;;;5009748;28;20585;-47
2022/10/05 00:44:03;;;;;;;3.60;1.03;;;9.10;99.90;;;;;;5009375;28;20475;-47
2022/10/05 00:46:40;;;;;;;1.00;0.60;;;9.30;99.90;;;;;;4996152;28;20447;-47
2022/10/05 00:49:19;;;;;;;1.23;0.57;;;9.30;99.90;;;;;;5009764;28;20450;-47
2022/10/05 00:51:52;;;;;;;1.00;0.60;;;9.30;99.90;;;;;;5009817;28;20444;-47
2022/10/05 00:54:29;;;;;;;1.57;0.60;;;9.30;99.90;;;;;;5008837;28;20467;-48
2022/10/05 00:57:18;;;;;;;1.13;0.67;;;9.30;99.90;;;;;;5009276;28;20482;-47
2022/10/05 00:59:58;;;;;;;1.60;0.63;;;9.20;99.90;;;;;;5009685;28;20446;-47
2022/10/05 01:02:32;;;;;;;1.10;0.70;;;9.20;99.90;;;;;;5009460;28;20477;-47
2022/10/05 01:05:07;;;;;;;1.20;0.70;;;9.20;99.90;;;;;;5009134;28;20507;-47
2022/10/05 01:07:47;;;;;;;3.10;0.63;;;9.20;99.90;;;;;;5009126;28;20493;-47
2022/10/05 01:10:22;;;;;;;2.07;0.90;;;9.20;99.90;;;;;;5008996;28;20451;-47
2022/10/05 01:12:59;;;;;;;1.47;0.70;;;9.20;99.90;;;;;;5009229;28;20977;-47
2022/10/05 01:15:32;;;;;;;2.40;0.90;;;9.20;99.90;;;;;;5009050;28;20526;-46
2022/10/05 01:18:09;;;;;;;1.10;0.60;;;9.20;99.90;;;;;;5008881;28;20447;-47
2022/10/05 01:20:44;;;;;;;2.60;0.87;;;9.10;99.90;;;;;;5008852;28;20443;-47
2022/10/05 01:23:38;;;;;;;2.00;0.90;;;9.10;99.90;;;;;;5008868;28;20848;-47
2022/10/05 01:26:20;;;;;;;1.57;0.80;;;9.00;99.90;;;;;;5008858;28;20854;-49
2022/10/05 01:28:54;;;;;;;1.90;0.70;;;9.10;99.90;;;;;;5008930;28;20539;-47
2022/10/05 01:31:26;;;;;;;1.57;0.60;;;9.20;99.90;;;;;;5008693;28;20532;-46
2022/10/05 01:34:02;;;;;;;1.63;0.70;;;9.20;99.90;;;;;;5008575;28;20552;-47
2022/10/05 01:36:33;;;;;;;1.30;0.80;;;9.10;99.90;;;;;;5008960;28;20546;-47
2022/10/05 01:39:09;;;;;;;2.17;0.87;;;8.60;99.90;;;;;;5008643;28;20450;-47
2022/10/05 01:41:47;;;;;;;1.00;0.60;;;8.90;99.90;;;;;;5008838;28;20478;-48
2022/10/05 01:44:21;;;;;;;1.00;0.50;;;8.80;99.90;;;;;;5008632;28;20459;-49
2022/10/05 01:46:57;;;;;;;1.23;0.53;;;8.70;99.90;;;;;;5008695;28;20447;-47
2022/10/05 01:49:37;;;;;;;0.90;0.50;;;8.90;99.90;;;;;;5009322;28;20530;-47
2022/10/05 01:52:14;;;;;;;1.00;0.60;;;8.90;99.90;;;;;;5007866;28;20454;-47
2022/10/05 01:54:54;;;;;;;1.67;0.80;;;9.00;99.90;;;;;;5009518;28;20471;-51
2022/10/05 01:57:29;;;;;;;1.77;0.60;;;9.00;99.90;;;;;;5008781;28;20449;-50
2022/10/05 02:00:06;;;;;;;1.23;0.77;;;8.90;99.90;;;;;;5008664;28;20447;-47
2022/10/05 02:02:37;;;;;;;1.27;0.63;;;8.80;99.90;;;;;;5008569;28;20516;-47
2022/10/05 02:05:09;;;;;;;4.40;0.83;;;8.80;99.90;;;;;;5008246;28;20565;-47
2022/10/05 02:07:42;;;;;;;1.00;0.77;;;8.80;99.90;;;;;;5008167;28;20448;-47
2022/10/05 02:10:18;;;;;;;1.10;0.60;;;8.90;99.90;;;;;;5008526;28;20443;-47
2022/10/05 02:12:48;;;;;;;1.67;0.60;;;8.90;99.90;;;;;;5008289;28;20966;-47
2022/10/05 02:15:22;;;;;;;1.20;0.73;;;8.80;99.90;;;;;;5008253;28;20487;-48
2022/10/05 02:17:52;;;;;;;4.37;0.60;;;8.70;99.90;;;;;;5007347;28;20443;-47
2022/10/05 02:20:24;;;;;;;2.90;0.60;;;8.70;99.90;;;;;;5008458;28;20462;-46
2022/10/05 02:22:54;;;;;;;2.20;0.67;;;8.80;99.90;;;;;;5007840;28;20467;-45
2022/10/05 02:25:24;;;;;;;1.07;0.60;;;9.00;99.90;;;;;;5008692;28;20479;-49
2022/10/05 02:27:55;;;;;;;1.00;0.60;;;9.00;99.90;;;;;;5007806;28;20942;-47
2022/10/05 02:30:23;;;;;;;2.30;0.60;;;8.90;99.90;;;;;;5008535;28;20454;-47
2022/10/05 02:32:54;;;;;;;1.20;0.43;;;8.90;99.90;;;;;;5008190;28;20481;-47
2022/10/05 02:35:22;;;;;;;1.10;0.60;;;8.90;99.90;;;;;;5008199;28;20440;-47
2022/10/05 02:38:01;;;;;;;1.60;0.87;;;8.30;99.90;;;;;;5008162;28;20475;-47
2022/10/05 02:40:41;;;;;;;1.03;0.60;;;8.30;99.90;;;;;;5007669;28;20534;-50
2022/10/05 02:43:18;;;;;;;1.30;0.87;;;8.50;99.90;;;;;;5007758;28;20522;-47
2022/10/05 02:45:55;;;;;;;1.50;0.90;;;8.50;99.90;;;;;;5007953;28;20475;-47
2022/10/05 02:48:34;;;;;;;1.20;0.57;;;8.60;99.90;;;;;;5008107;28;20439;-49
2022/10/05 02:51:09;;;;;;;1.40;0.83;;;8.60;99.90;;;;;;5007842;28;20451;-48
2022/10/05 02:53:46;;;;;;;1.10;0.70;;;8.60;99.90;;;;;;5007629;28;20481;-50
2022/10/05 02:56:20;;;;;;;1.00;0.60;;;8.30;99.90;;;;;;5007994;28;20449;-47
2022/10/05 02:58:59;;;;;;;0.90;0.50;;;8.60;99.90;;;;;;5007526;28;21012;-50
2022/10/05 03:01:34;;;;;;;1.27;0.80;;;8.60;99.90;;;;;;5007889;28;20434;-47
2022/10/05 03:04:10;;;;;;;1.07;0.50;;;8.40;99.90;;;;;;5009311;28;20543;-47
2022/10/05 03:06:47;;;;;;;1.10;0.70;;;8.50;99.90;;;;;;5010894;28;20478;-47
2022/10/05 03:09:17;;;;;;;0.97;0.57;;;8.60;99.90;;;;;;5011039;28;20475;-47
2022/10/05 03:11:52;;;;;;;1.50;0.80;;;8.60;99.90;;;;;;5010725;28;20913;-48
2022/10/05 03:14:23;;;;;;;1.60;0.60;;;8.40;99.90;;;;;;5010833;28;20824;-47
2022/10/05 03:17:04;;;;;;;1.77;0.97;;;8.30;99.90;;;;;;5010637;28;20450;-47
2022/10/05 03:20:01;;;;;;;1.10;0.77;;;8.30;99.90;;;;;;5011019;28;20534;-48
2022/10/05 03:22:42;;;;;;;1.10;0.77;;;8.50;99.90;;;;;;5010849;28;21033;-47
2022/10/05 03:25:46;;;;;;;1.50;0.70;;;8.60;99.90;;;;;;5010628;28;20835;-49
2022/10/05 03:28:19;;;;;;;2.10;0.60;;;8.70;99.90;;;;;;5010520;28;20535;-50
2022/10/05 03:30:53;;;;;;;1.00;0.50;;;8.70;99.90;;;;;;5010618;28;20811;-47
2022/10/05 03:33:32;;;;;;;1.00;0.50;;;8.60;99.90;;;;;;5010621;28;20472;-46
2022/10/05 03:36:08;;;;;;;1.03;0.77;;;8.60;99.90;;;;;;5010590;28;20969;-48
2022/10/05 03:38:43;;;;;;;1.10;0.80;;;8.60;99.90;;;;;;5010405;28;20951;-47
2022/10/05 03:41:17;;;;;;;4.00;0.77;;;8.40;99.90;;;;;;5010668;28;20530;-48
2022/10/05 03:44:00;;;;;;;0.80;0.47;;;8.50;99.90;;;;;;5010219;28;20454;-48
2022/10/05 03:46:39;;;;;;;1.00;0.70;;;8.50;99.90;;;;;;5010358;28;20570;-47
2022/10/05 03:49:14;;;;;;;1.83;0.73;;;8.40;99.90;;;;;;5010480;28;20443;-47
2022/10/05 03:51:45;;;;;;;1.83;0.90;;;8.50;99.90;;;;;;5010130;28;20446;-49
2022/10/05 03:54:20;;;;;;;3.20;1.40;;;8.40;99.90;;;;;;5009878;28;20545;-47
2022/10/05 03:56:52;;;;;;;1.23;0.83;;;8.40;99.90;;;;;;5010197;28;20514;-47
2022/10/05 03:59:23;;;;;;;1.30;0.73;;;8.40;99.90;;;;;;5010067;28;20885;-47
2022/10/05 04:01:54;;;;;;;1.30;0.60;;;8.30;99.90;;;;;;5010277;28;20451;-47
2022/10/05 04:04:28;;;;;;;1.03;0.60;;;8.20;99.90;;;;;;5009938;28;20474;-49
2022/10/05 04:06:57;;;;;;;1.50;0.80;;;8.30;99.90;;;;;;5010471;28;20558;-48
2022/10/05 04:09:30;;;;;;;1.93;0.70;;;8.30;99.90;;;;;;5009858;28;20454;-48
2022/10/05 04:12:13;;;;;;;1.20;0.77;;;8.30;99.90;;;;;;5010083;28;20478;-47
2022/10/05 04:14:45;;;;;;;2.03;1.00;;;8.40;99.90;;;;;;5009392;28;20459;-47
2022/10/05 04:17:15;;;;;;;1.50;0.80;;;8.40;99.90;;;;;;5009589;28;20874;-47
2022/10/05 04:19:49;;;;;;;3.17;2.73;;;7.90;99.90;;;;;;5010017;28;20534;-49
2022/10/05 04:22:21;;;;;;;1.20;1.00;;;8.10;99.90;;;;;;5009555;28;21008;-48
2022/10/05 04:24:53;;;;;;;4.47;3.30;;;7.60;99.90;;;;;;5009382;28;20551;-47
2022/10/05 04:27:23;;;;;;;4.97;3.80;;;7.90;99.90;;;;;;5009172;28;20948;-47
2022/10/05 04:29:54;;;;;;;4.33;3.10;;;8.00;99.90;;;;;;5009316;28;20885;-47
2022/10/05 04:32:42;;;;;;;1.90;1.53;;;8.10;99.90;;;;;;5009900;28;21008;-47
2022/10/05 04:35:46;;;;;;;1.40;1.07;;;8.10;99.90;;;;;;5009557;28;20467;-47
2022/10/05 04:38:26;;;;;;;1.27;0.90;;;7.60;99.90;;;;;;4962965;28;20455;-48
2022/10/05 04:41:06;;;;;;;1.67;1.10;;;7.10;99.90;;;;;;5009631;28;20458;-49
2022/10/05 04:43:42;;;;;;;2.23;1.20;;;7.30;99.90;;;;;;5009124;28;20969;-47
2022/10/05 04:46:20;;;;;;;3.80;2.77;;;7.40;99.90;;;;;;5009612;28;20478;-47
2022/10/05 04:49:13;;;;;;;4.50;3.27;;;7.80;99.90;;;;;;5009382;28;20446;-47
2022/10/05 04:51:52;;;;;;;4.23;1.90;;;8.00;99.90;;;;;;5009557;28;20443;-47
2022/10/05 04:54:29;;;;;;;2.80;2.27;;;8.00;99.90;;;;;;5009035;28;20485;-47
2022/10/05 04:57:00;;;;;;;2.60;1.80;;;7.80;99.90;;;;;;5008971;28;20543;-47
2022/10/05 05:00:04;;;;;;;2.20;1.77;;;8.00;99.90;;;;;;5009302;28;20983;-48
2022/10/05 05:02:43;;;;;;;4.53;3.30;;;7.90;99.90;;;;;;5009275;28;20944;-47
2022/10/05 05:05:25;;;;;;;43.07;34.40;;;7.80;99.90;;;;;;5009046;28;20447;-47
2022/10/05 05:08:06;;;;;;;12.13;7.70;;;7.90;99.90;;;;;;5009162;28;20446;-47
2022/10/05 05:10:54;;;;;;;4.87;4.23;;;7.90;99.90;;;;;;5009003;28;20447;-46
2022/10/05 05:13:40;;;;;;;3.60;2.47;;;8.10;99.90;;;;;;5008818;28;20907;-47
2022/10/05 05:16:12;;;;;;;6.03;3.60;;;7.50;99.90;;;;;;5009235;28;20435;-50
2022/10/05 05:18:53;;;;;;;3.37;2.87;;;7.70;99.90;;;;;;5008863;28;20447;-47
2022/10/05 05:21:32;;;;;;;3.97;3.10;;;7.70;99.90;;;;;;5009144;28;20532;-49
2022/10/05 05:24:07;;;;;;;4.87;3.57;;;7.90;99.90;;;;;;5008641;28;20463;-49
2022/10/05 05:26:47;;;;;;;4.57;3.50;;;7.80;99.90;;;;;;5007709;28;20477;-49
2022/10/05 05:29:18;;;;;;;2.40;2.20;;;7.80;99.90;;;;;;5009040;28;20444;-47
2022/10/05 05:31:51;;;;;;;1.60;1.50;;;7.90;99.90;;;;;;5008832;28;20451;-48
2022/10/05 05:34:38;;;;;;;3.17;2.20;;;8.00;99.90;;;;;;5008561;28;20546;-47
2022/10/05 05:37:13;;;;;;;3.37;3.00;;;8.10;99.90;;;;;;5009028;28;20445;-47
2022/10/05 05:39:50;;;;;;;2.83;2.53;;;7.90;99.90;;;;;;5008758;28;20819;-47
2022/10/05 05:42:30;;;;;;;2.80;2.00;;;7.90;99.90;;;;;;5008761;28;20529;-47
2022/10/05 05:45:04;;;;;;;1.70;1.50;;;8.00;99.90;;;;;;5008350;28;20449;-49
2022/10/05 05:47:36;;;;;;;1.50;1.13;;;8.10;99.90;;;;;;5008558;28;20479;-50
2022/10/05 05:50:23;;;;;;;2.10;1.90;;;8.00;99.90;;;;;;5009015;28;20490;-47
2022/10/05 05:52:54;;;;;;;3.03;1.90;;;7.70;99.90;;;;;;5008177;28;20470;-50
2022/10/05 05:55:26;;;;;;;1.63;1.20;;;7.80;99.90;;;;;;5008583;28;20450;-47
2022/10/05 05:57:58;;;;;;;2.27;1.00;;;7.80;99.90;;;;;;5008838;28;20830;-47
2022/10/05 06:00:29;;;;;;;1.80;1.30;;;7.90;99.90;;;;;;5008455;28;20444;-47
2022/10/05 06:03:03;;;;;;;1.70;1.30;;;7.90;99.90;;;;;;5008103;28;20467;-47
2022/10/05 06:05:33;;;;;;;1.57;1.30;;;8.00;99.90;;;;;;5008536;28;20953;-47
2022/10/05 06:08:06;;;;;;;2.37;1.67;;;8.00;99.90;;;;;;5008908;28;20439;-47
2022/10/05 06:10:40;;;;;;;2.47;1.70;;;8.10;99.90;;;;;;5008190;28;20948;-47
2022/10/05 06:13:16;;;;;;;2.80;1.60;;;7.50;99.90;;;;;;5008156;28;20486;-47
2022/10/05 06:15:49;;;;;;;2.73;1.63;;;7.30;99.90;;;;;;5008100;28;20961;-47
2022/10/05 06:18:19;;;;;;;1.80;1.47;;;7.60;99.90;;;;;;5007913;28;20458;-47
2022/10/05 06:20:52;;;;;;;1.50;1.40;;;7.80;99.90;;;;;;5008112;28;20446;-47
2022/10/05 06:23:23;;;;;;;2.63;1.80;;;7.80;99.90;;;;;;5008013;28;20481;-47
2022/10/05 06:26:07;;;;;;;2.23;1.30;;;7.90;99.90;;;;;;5007867;28;20479;-50
2022/10/05 06:28:34;;;;;;;2.00;1.10;;;8.00;99.90;;;;;;5008380;28;20533;-50
2022/10/05 06:31:10;;;;;;;1.40;0.80;;;8.10;99.90;;;;;;5008180;28;20534;-48
2022/10/05 06:33:49;;;;;;;1.70;0.90;;;8.30;99.90;;;;;;5007853;28;20465;-47
2022/10/05 06:36:34;;;;;;;1.33;0.90;;;8.50;99.90;;;;;;5008041;28;20818;-47
2022/10/05 06:39:27;;;;;;;1.97;1.63;;;8.60;99.90;;;;;;5011257;28;20443;-48
2022/10/05 06:42:09;;;;;;;4.07;2.43;;;8.00;99.90;;;;;;5011380;28;20443;-47
2022/10/05 06:44:43;;;;;;;3.80;1.87;;;8.10;99.90;;;;;;5010912;28;20527;-48
2022/10/05 06:47:17;;;;;;;2.30;1.20;;;8.20;99.90;;;;;;5011318;28;20479;-47
2022/10/05 06:49:51;;;;;;;4.17;1.83;;;8.20;99.90;;;;;;5010953;28;20937;-47
2022/10/05 06:52:26;;;;;;;3.77;1.47;;;8.20;99.90;;;;;;5011433;28;20451;-48
2022/10/05 06:55:09;;;;;;;2.10;1.30;;;8.10;99.90;;;;;;5010829;28;20450;-47
2022/10/05 06:57:50;;;;;;;1.40;1.20;;;7.90;99.90;;;;;;5011203;28;20474;-49
2022/10/05 07:00:20;;;;;;;1.53;1.13;;;7.50;99.90;;;;;;5011256;28;20446;-47
2022/10/05 07:02:54;;;;;;;2.30;1.20;;;7.50;99.90;;;;;;5011064;28;20508;-47
2022/10/05 07:05:50;;;;;;;3.80;2.30;;;7.80;99.90;;;;;;5010896;28;20438;-48
2022/10/05 07:08:25;;;;;;;4.07;2.90;;;8.20;99.90;;;;;;5011088;28;20432;-48
2022/10/05 07:11:08;;;;;;;2.33;2.13;;;8.30;99.90;;;;;;5010959;28;20443;-47
2022/10/05 07:14:03;;;;;;;3.77;2.80;;;8.30;99.90;;;;;;5010245;28;20477;-47
2022/10/05 07:16:41;;;;;;;3.33;2.83;;;8.20;99.90;;;;;;5007744;28;20443;-47
2022/10/05 07:19:21;;;;;;;3.90;3.43;;;8.30;99.90;;;;;;5011261;28;20444;-47
2022/10/05 07:21:59;;;;;;;4.73;4.23;;;8.40;99.90;;;;;;5010648;28;20442;-46
2022/10/05 07:24:31;;;;;;;4.77;3.47;;;8.40;99.90;;;;;;5010613;28;20541;-50
2022/10/05 07:27:10;;;;;;;3.17;2.87;;;8.40;99.90;;;;;;5010376;28;20482;-47
2022/10/05 07:29:46;;;;;;;3.20;2.30;;;8.50;99.90;;;;;;5010855;28;20446;-47
2022/10/05 07:32:27;;;;;;;2.27;1.63;;;8.50;99.90;;;;;;5010539;28;20482;-47
2022/10/05 07:35:00;;;;;;;4.03;2.40;;;8.30;99.90;;;;;;5010656;28;20447;-50
2022/10/05 07:37:53;;;;;;;3.67;2.17;;;8.30;99.90;;;;;;5010593;28;20535;-47
2022/10/05 07:40:26;;;;;;;6.70;4.43;;;8.40;99.90;;;;;;5010339;28;20443;-47
2022/10/05 07:43:01;;;;;;;4.50;3.37;;;8.10;99.90;;;;;;5010220;28;20464;-50
2022/10/05 07:45:37;;;;;;;4.97;2.20;;;8.10;99.90;;;;;;5010628;28;20443;-47
2022/10/05 07:48:14;;;;;;;3.23;2.53;;;8.10;99.90;;;;;;5010240;28;20532;-47
2022/10/05 07:50:51;;;;;;;3.43;2.47;;;8.20;99.90;;;;;;5009777;28;20443;-47
2022/10/05 07:53:22;;;;;;;3.87;2.87;;;8.40;99.90;;;;;;5011323;28;20477;-47
2022/10/05 07:55:53;;;;;;;4.70;3.40;;;8.60;99.90;;;;;;5009385;28;20443;-49
2022/10/05 07:58:26;;;;;;;5.13;4.73;;;8.60;99.90;;;;;;5010285;28;20443;-47
2022/10/05 08:01:05;;;;;;;7.10;6.40;;;8.80;99.90;;;;;;5010174;28;20941;-47
2022/10/05 08:03:43;;;;;;;6.17;5.00;;;9.00;99.90;;;;;;5009789;28;20467;-48
2022/10/05 08:06:16;;;;;;;4.47;4.03;;;9.10;99.90;;;;;;5010020;28;20439;-48
2022/10/05 08:08:52;;;;;;;3.40;2.57;;;9.20;99.90;;;;;;5010317;28;20450;-47
2022/10/05 08:11:25;;;;;;;3.03;1.80;;;9.10;99.90;;;;;;5010055;28;20449;-47
2022/10/05 08:13:55;;;;;;;3.67;2.90;;;9.30;99.90;;;;;;5009749;28;20521;-47
2022/10/05 08:16:29;;;;;;;1.90;1.67;;;9.50;99.90;;;;;;5009517;28;20446;-47
2022/10/05 08:19:01;;;;;;;2.37;1.60;;;9.60;99.90;;;;;;5010064;28;20805;-47
2022/10/05 08:21:34;;;;;;;1.70;1.10;;;9.60;99.90;;;;;;5009873;28;20788;-47
2022/10/05 08:24:11;;;;;;;2.70;1.60;;;9.70;99.90;;;;;;5009688;28;20468;-47
2022/10/05 08:26:47;;;;;;;3.03;2.03;;;9.80;99.90;;;;;;5009394;28;20569;-47
2022/10/05 08:29:19;;;;;;;3.10;1.87;;;9.70;99.90;;;;;;5009915;28;20530;-48
2022/10/05 08:31:52;;;;;;;2.80;1.60;;;9.70;99.90;;;;;;5010015;28;20461;-47
2022/10/05 08:34:25;;;;;;;2.77;1.53;;;9.80;99.90;;;;;;5009469;28;20539;-47
2022/10/05 08:36:59;;;;;;;1.83;1.07;;;9.90;99.90;;;;;;5009803;28;20532;-47
2022/10/05 08:39:30;;;;;;;1.43;0.80;;;10.00;99.90;;;;;;5010124;28;20487;-47
2022/10/05 08:42:33;;;;;;;1.40;1.10;;;10.00;99.90;;;;;;5009344;28;20882;-48
2022/10/05 08:45:26;;;;;;;2.03;1.20;;;10.10;99.90;;;;;;5009529;28;20519;-47
2022/10/05 08:48:18;;;;;;;4.90;1.70;;;10.30;99.90;;;;;;4999664;28;20484;-48
2022/10/05 08:51:14;;;;;;;3.70;1.40;;;10.30;99.90;;;;;;4973554;28;20450;-51
2022/10/05 08:54:06;;;;;;;1.63;1.10;;;10.50;99.90;;;;;;5009012;28;20472;-48
2022/10/05 08:56:41;;;;;;;1.60;1.10;;;10.70;99.90;;;;;;5009329;28;20445;-49
2022/10/05 08:59:36;;;;;;;2.80;1.40;;;10.70;99.90;;;;;;5009311;28;20526;-48
2022/10/05 09:02:20;;;;;;;2.27;1.40;;;10.70;99.90;;;;;;5002476;28;20452;-49
2022/10/05 09:05:03;;;;;;;8.23;1.50;;;11.00;99.90;;;;;;5008913;28;20467;-48
2022/10/05 09:08:02;;;;;;;1.97;1.20;;;11.00;99.90;;;;;;5009257;28;20494;-48
2022/10/05 09:11:02;;;;;;;3.00;1.10;;;11.10;99.90;;;;;;4976360;28;20544;-48
2022/10/05 09:13:48;;;;;;;1.57;1.07;;;11.20;99.90;;;;;;5008792;28;20470;-48
2022/10/05 09:16:38;;;;;;;1.47;1.07;;;11.30;99.90;;;;;;5009398;28;20452;-48
2022/10/05 09:19:56;;;;;;;1.17;0.60;;;11.60;99.90;;;;;;5008818;28;20828;-48
2022/10/05 09:22:47;;;;;;;2.93;1.10;;;11.50;99.90;;;;;;4981060;28;20458;-48
2022/10/05 09:25:22;;;;;;;1.40;0.90;;;11.70;99.90;;;;;;5008892;28;20877;-48
2022/10/05 09:27:54;;;;;;;1.87;1.00;;;11.70;99.90;;;;;;5008145;28;20856;-50
2022/10/05 09:30:31;;;;;;;1.10;0.80;;;11.80;99.90;;;;;;5008706;28;20447;-50
2022/10/05 09:33:27;;;;;;;1.20;0.80;;;11.80;99.90;;;;;;5008690;28;20474;-48
2022/10/05 09:36:19;;;;;;;2.77;1.40;;;11.90;99.90;;;;;;5008899;28;20509;-49
2022/10/05 09:39:23;;;;;;;2.33;1.13;;;12.00;99.90;;;;;;5008932;28;20523;-49
2022/10/05 09:42:25;;;;;;;1.60;1.13;;;12.10;99.90;;;;;;5008374;28;20440;-48
2022/10/05 09:45:28;;;;;;;1.90;1.20;;;12.20;99.90;;;;;;5008592;28;20466;-48
2022/10/05 09:48:46;;;;;;;1.93;1.10;;;12.30;99.90;;;;;;5008548;28;20993;-48
2022/10/05 09:51:47;;;;;;;1.87;1.03;;;12.60;99.90;;;;;;5008699;28;20444;-48
2022/10/05 09:55:00;;;;;;;1.83;1.07;;;12.80;99.90;;;;;;5008191;28;20559;-48
2022/10/05 09:57:56;;;;;;;1.83;1.30;;;13.00;99.90;;;;;;5008809;28;20742;-48
2022/10/05 10:00:30;;;;;;;1.80;1.20;;;12.90;99.90;;;;;;5000466;28;20896;-48
2022/10/05 10:03:48;;;;;;;2.10;1.50;;;12.90;99.90;;;;;;5008377;28;20463;-48
2022/10/05 10:06:46;;;;;;;3.10;1.07;;;13.00;99.90;;;;;;5008361;28;20440;-48
2022/10/05 10:09:25;;;;;;;1.40;1.13;;;12.90;99.90;;;;;;5008306;28;21218;-48
2022/10/05 10:12:16;;;;;;;2.70;1.13;;;13.00;99.90;;;;;;5008371;28;20433;-48
2022/10/05 10:15:14;;;;;;;2.03;1.20;;;13.10;99.90;;;;;;5011672;28;20466;-48
2022/10/05 10:18:06;;;;;;;1.30;1.00;;;13.10;99.90;;;;;;5003650;28;20459;-48
2022/10/05 10:20:50;;;;;;;1.80;1.40;;;13.30;99.90;;;;;;5011563;28;20799;-48
2022/10/05 10:23:28;;;;;;;1.60;1.10;;;13.50;99.90;;;;;;5011917;28;20459;-48
2022/10/05 10:26:23;;;;;;;1.70;1.10;;;13.50;99.90;;;;;;5011106;28;20816;-49
2022/10/05 10:29:34;;;;;;;1.70;1.30;;;13.60;99.90;;;;;;5011741;28;20481;-48
2022/10/05 10:32:19;;;;;;;2.13;1.07;;;13.60;99.90;;;;;;4978432;28;20524;-49
2022/10/05 10:35:20;;;;;;;2.88;1.20;;;13.70;99.90;;;;;;5009952;28;20443;-48
2022/10/05 10:38:23;;;;;;;2.10;1.10;;;13.80;99.90;;;;;;5010726;28;20563;-48
2022/10/05 10:41:28;;;;;;;1.47;0.93;;;14.00;99.90;;;;;;5021548;28;20948;-47
2022/10/05 10:44:29;;;;;;;1.67;1.00;;;14.20;99.90;;;;;;5008706;28;20549;-48
2022/10/05 10:47:22;;;;;;;2.00;1.30;;;14.40;99.90;;;;;;5011552;28;20931;-51
2022/10/05 10:50:09;;;;;;;3.93;1.43;;;14.50;99.90;;;;;;5010414;28;20443;-48
2022/10/05 10:52:56;;;;;;;1.63;1.10;;;14.50;99.90;;;;;;5011234;28;20456;-51
2022/10/05 10:55:34;;;;;;;2.03;1.30;;;14.60;99.90;;;;;;5011411;28;20448;-48
2022/10/05 10:58:38;;;;;;;6.93;1.40;;;14.50;99.90;;;;;;5011608;28;20449;-48
2022/10/05 11:01:25;;;;;;;3.00;1.43;;;14.70;99.90;;;;;;5011107;28;20464;-48
2022/10/05 11:04:14;;;;;;;1.57;0.90;;;14.70;99.90;;;;;;5009984;28;20549;-49
2022/10/05 11:07:23;;;;;;;1.60;1.30;;;14.90;99.90;;;;;;5009790;28;20506;-50
2022/10/05 11:10:11;;;;;;;2.23;1.27;;;14.90;99.90;;;;;;5000777;28;20453;-48
2022/10/05 11:13:08;;;;;;;1.40;0.93;;;14.90;99.90;;;;;;5010586;28;20527;-49
2022/10/05 11:16:07;;;;;;;2.70;1.23;;;15.10;99.90;;;;;;5010563;28;21012;-50
2022/10/05 11:19:03;;;;;;;4.20;1.30;;;15.10;99.90;;;;;;5010220;28;20807;-48
2022/10/05 11:21:37;;;;;;;2.90;1.27;;;15.20;99.90;;;;;;5002409;28;20545;-51
2022/10/05 11:24:37;;;;;;;2.10;1.43;;;15.30;99.90;;;;;;5009034;28;20467;-49
2022/10/05 11:27:46;;;;;;;1.63;1.10;;;15.40;99.90;;;;;;5010338;28;20452;-48
2022/10/05 11:30:48;;;;;;;1.20;0.67;;;15.10;99.90;;;;;;4972942;28;20454;-49
2022/10/05 11:34:08;;;;;;;3.60;1.00;;;15.10;99.90;;;;;;5010299;28;20465;-50
2022/10/05 11:36:54;;;;;;;1.60;1.20;;;15.00;99.90;;;;;;5010529;28;20451;-49
2022/10/05 11:39:37;;;;;;;2.40;1.27;;;15.00;99.90;;;;;;5010657;28;20534;-48
2022/10/05 11:42:38;;;;;;;1.50;1.33;;;15.10;99.90;;;;;;5010431;28;20454;-48
2022/10/05 11:45:25;;;;;;;1.60;1.30;;;15.10;99.90;;;;;;5010740;28;20443;-48
2022/10/05 11:48:06;;;;;;;2.70;2.50;;;15.30;99.90;;;;;;5010495;28;20511;-49
2022/10/05 11:50:39;;;;;;;2.00;1.20;;;15.40;99.90;;;;;;5010414;28;20819;-49
2022/10/05 11:53:13;;;;;;;1.90;1.27;;;15.60;99.90;;;;;;5009853;28;20826;-50
2022/10/05 11:55:43;;;;;;;3.17;1.50;;;15.60;99.90;;;;;;5010568;28;20450;-49
2022/10/05 11:58:16;;;;;;;2.40;1.60;;;15.60;99.90;;;;;;5010493;28;20451;-49
2022/10/05 12:00:49;;;;;;;3.10;1.10;;;15.50;99.90;;;;;;5010318;28;20446;-48
2022/10/05 12:03:35;;;;;;;2.10;1.30;;;15.50;99.90;;;;;;5010394;28;20998;-49
2022/10/05 12:06:22;;;;;;;1.90;1.10;;;15.50;99.90;;;;;;5010128;28;21012;-48
2022/10/05 12:09:02;;;;;;;1.73;0.90;;;15.70;99.90;;;;;;5010141;28;20490;-47
2022/10/05 12:11:48;;;;;;;2.10;0.97;;;15.90;99.90;;;;;;5009960;28;20449;-48
2022/10/05 12:14:23;;;;;;;1.47;0.80;;;15.90;99.90;;;;;;5009656;28;21057;-49
2022/10/05 12:16:58;;;;;;;2.20;1.23;;;16.00;99.90;;;;;;5010016;28;20490;-48
2022/10/05 12:19:32;;;;;;;2.33;1.10;;;15.80;99.90;;;;;;5009997;28;20447;-48
2022/10/05 12:22:14;;;;;;;1.80;1.27;;;15.80;99.90;;;;;;5010064;28;20941;-49
2022/10/05 12:25:13;;;;;;;4.17;2.40;;;15.90;99.90;;;;;;5009444;28;20468;-49
2022/10/05 12:27:45;;;;;;;3.50;1.40;;;16.00;99.90;;;;;;5009381;28;20487;-51
2022/10/05 12:30:15;;;;;;;4.80;1.23;;;16.00;99.90;;;;;;5009648;28;20455;-48
2022/10/05 12:32:53;;;;;;;3.20;1.50;;;16.30;99.90;;;;;;5009841;28;20530;-48
2022/10/05 12:35:27;;;;;;;3.00;1.17;;;16.10;99.90;;;;;;5009432;28;20443;-50
2022/10/05 12:37:58;;;;;;;2.63;1.60;;;16.20;99.90;;;;;;5009674;28;20435;-49
2022/10/05 12:40:30;;;;;;;2.20;1.03;;;16.50;99.90;;;;;;5009911;28;20443;-49
2022/10/05 12:43:07;;;;;;;3.20;1.20;;;16.40;99.90;;;;;;5009526;28;20459;-48
2022/10/05 12:45:48;;;;;;;1.40;0.93;;;16.20;99.90;;;;;;5009474;28;20455;-50
2022/10/05 12:48:35;;;;;;;1.50;0.93;;;16.30;99.90;;;;;;5009353;28;20927;-48
2022/10/05 12:51:09;;;;;;;2.57;1.27;;;16.30;99.90;;;;;;5009286;28;20428;-50
2022/10/05 12:53:49;;;;;;;2.17;1.23;;;16.50;99.90;;;;;;5009178;28;21011;-48
2022/10/05 12:56:23;;;;;;;3.37;1.37;;;16.40;99.90;;;;;;5009242;28;20448;-48
2022/10/05 12:58:58;;;;;;;3.93;1.67;;;16.30;99.90;;;;;;5009367;28;21055;-50
2022/10/05 13:01:35;;;;;;;5.07;1.43;;;16.50;99.90;;;;;;5009570;28;20439;-48
2022/10/05 13:04:17;;;;;;;2.50;1.70;;;16.80;99.90;;;;;;5009125;28;20477;-49
2022/10/05 13:06:52;;;;;;;2.60;1.47;;;16.70;99.90;;;;;;5009295;28;20448;-48
2022/10/05 13:09:27;;;;;;;3.47;1.10;;;16.70;99.90;;;;;;5009001;28;21014;-49
2022/10/05 13:12:02;;;;;;;1.97;1.20;;;16.50;99.90;;;;;;5008994;28;20445;-48
2022/10/05 13:14:46;;;;;;;1.87;1.30;;;16.20;99.90;;;;;;5009228;28;20545;-49
2022/10/05 13:17:20;;;;;;;2.53;1.30;;;16.20;99.90;;;;;;5008702;28;20450;-49
2022/10/05 13:19:55;;;;;;;2.17;1.27;;;16.60;99.90;;;;;;5009003;28;20527;-49
2022/10/05 13:22:35;;;;;;;2.73;1.33;;;16.80;99.90;;;;;;5009091;28;20451;-49
2022/10/05 13:25:20;;;;;;;9.90;1.87;;;16.70;99.90;;;;;;5008768;28;20447;-51
2022/10/05 13:27:55;;;;;;;5.50;4.10;;;16.80;99.90;;;;;;5008175;28;20444;-49
2022/10/05 13:30:22;;;;;;;2.67;1.73;;;16.90;99.90;;;;;;5009149;28;20489;-52
2022/10/05 13:32:57;;;;;;;3.03;1.10;;;17.00;99.90;;;;;;5008989;28;20470;-49
2022/10/05 13:35:43;;;;;;;2.53;1.10;;;16.80;99.90;;;;;;5008747;28;20530;-47
2022/10/05 13:38:23;;;;;;;1.90;1.33;;;16.80;99.90;;;;;;5008326;28;20875;-48
2022/10/05 13:40:59;;;;;;;1.73;1.30;;;16.90;99.90;;;;;;5008869;28;21013;-49
2022/10/05 13:43:33;;;;;;;2.63;1.30;;;16.90;99.90;;;;;;5008720;28;20842;-50
2022/10/05 13:46:10;;;;;;;2.53;1.60;;;16.90;99.90;;;;;;5008660;28;20854;-51
2022/10/05 13:48:57;;;;;;;8.23;1.50;;;17.00;99.90;;;;;;5008108;28;20475;-49
2022/10/05 13:51:36;;;;;;;2.33;1.20;;;17.00;99.90;;;;;;5008161;28;20960;-49
2022/10/05 13:54:10;;;;;;;4.63;1.20;;;17.00;99.90;;;;;;5009644;28;20479;-49
2022/10/05 13:56:42;;;;;;;1.77;1.10;;;17.10;99.90;;;;;;5008617;28;20892;-49
2022/10/05 13:59:18;;;;;;;2.23;1.20;;;17.00;99.90;;;;;;5008505;28;20791;-50